Time;durP1;ratioP1;P1;durP2;ratioP2;P2;SDS_P1;SDS_P2;PMS_P1;PMS_P2;Temp;Humidity;BMP_temperature;BMP_pressure;BME280_temperature;BME280_humidity;BME280_pressure;Samples;Min_cycle;Max_cycle;Signal;HPM_P1;HPM_P2
2022/08/14 00:00:18;;;;;;;9.40;8.00;;;;;;;20.10;80.87;100307.70;90099;1271;88319;-59
2022/08/14 00:02:46;;;;;;;9.60;8.40;;;;;;;20.13;80.90;100301.20;90068;1271;94584;-59
2022/08/14 00:04:55;;;;;;;8.60;7.50;;;;;;;20.14;81.11;100299.56;90056;1271;81995;-60
2022/08/14 00:07:04;;;;;;;8.80;7.90;;;;;;;20.15;81.08;100295.95;90004;1273;84791;-60
2022/08/14 00:09:13;;;;;;;12.70;8.60;;;;;;;20.14;81.11;100294.09;90106;1271;98600;-60
2022/08/14 00:11:21;;;;;;;8.20;7.50;;;;;;;20.10;81.43;100290.10;90092;1271;87715;-60
2022/08/14 00:13:31;;;;;;;10.40;7.80;;;;;;;20.13;81.49;100291.55;90088;1271;94274;-59
2022/08/14 00:15:45;;;;;;;10.10;7.70;;;;;;;20.10;81.48;100286.85;90059;1271;82372;-60
2022/08/14 00:17:53;;;;;;;;;;;;;;;20.13;81.57;100285.30;90098;1271;82131;-60
2022/08/14 00:20:01;;;;;;;11.40;8.70;;;;;;;20.16;81.51;100284.23;90099;1271;98096;-59
2022/08/14 00:22:14;;;;;;;10.20;8.60;;;;;;;20.19;81.51;100278.95;90103;1271;86507;-59
2022/08/14 00:24:23;;;;;;;8.90;7.50;;;;;;;20.21;81.34;100278.38;90068;1271;94407;-59
2022/08/14 00:26:32;;;;;;;8.40;7.60;;;;;;;20.21;81.36;100275.30;90063;1271;82266;-59
2022/08/14 00:28:41;;;;;;;9.30;8.40;;;;;;;20.22;81.44;100270.33;90115;1271;82799;-59
2022/08/14 00:30:50;;;;;;;9.40;8.30;;;;;;;20.24;81.36;100264.34;90088;1271;98974;-59
2022/08/14 00:32:59;;;;;;;8.50;7.80;;;;;;;20.25;81.18;100263.21;90085;1271;88851;-59
2022/08/14 00:35:11;;;;;;;8.40;7.60;;;;;;;20.30;81.01;100265.08;90081;1271;92705;-60
2022/08/14 00:37:19;;;;;;;9.30;7.60;;;;;;;20.32;81.06;100260.33;90066;1271;81372;-60
2022/08/14 00:39:28;;;;;;;8.60;7.80;;;;;;;20.30;80.94;100262.49;90090;1271;82854;-60
2022/08/14 00:41:37;;;;;;;10.00;7.80;;;;;;;20.31;80.74;100262.20;90075;1271;98806;-60
2022/08/14 00:43:47;;;;;;;9.80;8.50;;;;;;;20.31;80.61;100262.84;90093;1271;86560;-60
2022/08/14 00:45:55;;;;;;;10.90;8.00;;;;;;;20.28;80.42;100262.59;90067;1271;94970;-59
2022/08/14 00:48:05;;;;;;;8.30;7.50;;;;;;;20.30;80.38;100261.94;90039;1271;81212;-60
2022/08/14 00:50:17;;;;;;;9.20;8.10;;;;;;;20.28;80.30;100261.86;90084;1271;83107;-59
2022/08/14 00:52:27;;;;;;;9.00;8.20;;;;;;;20.28;80.18;100256.64;90103;1271;97397;-60
2022/08/14 00:54:37;;;;;;;8.70;7.80;;;;;;;20.27;80.20;100260.86;90097;1271;87692;-59
2022/08/14 00:56:47;;;;;;;8.20;7.00;;;;;;;20.27;80.02;100259.55;90064;1271;94825;-59
2022/08/14 00:58:58;;;;;;;10.50;6.90;;;;;;;20.27;80.07;100258.95;90078;1271;79923;-59
2022/08/14 01:01:11;;;;;;;12.30;7.80;;;;;;;20.28;79.93;100255.94;90110;1271;81344;-59
2022/08/14 01:03:21;;;;;;;8.70;7.60;;;;;;;20.28;79.87;100249.97;90090;1271;98772;-59
2022/08/14 01:05:30;;;;;;;8.30;7.50;;;;;;;20.31;79.94;100247.64;90100;1271;85617;-59
2022/08/14 01:07:39;;;;;;;7.90;7.10;;;;;;;20.34;79.77;100249.42;90057;1271;94594;-59
2022/08/14 01:09:49;;;;;;;7.80;7.00;;;;;;;20.34;79.61;100250.48;90067;1271;80863;-59
2022/08/14 01:11:58;;;;;;;9.50;7.20;;;;;;;20.33;79.36;100252.23;90111;1271;81949;-59
2022/08/14 01:14:07;;;;;;;8.20;6.60;;;;;;;20.33;79.24;100251.08;90110;1271;98637;-59
2022/08/14 01:16:19;;;;;;;9.20;6.60;;;;;;;20.34;79.14;100251.40;90098;1271;88691;-60
2022/08/14 01:21:13;;;;;;;7.40;6.50;;;;;;;20.36;78.86;100242.93;90063;1271;76832;-59
2022/08/14 01:23:22;;;;;;;9.60;6.80;;;;;;;20.36;78.86;100238.37;90108;1271;80806;-59
2022/08/14 01:25:31;;;;;;;7.20;6.50;;;;;;;20.36;78.65;100240.20;90091;1271;100062;-59
2022/08/14 01:27:43;;;;;;;9.60;6.70;;;;;;;20.33;78.43;100240.96;90072;1271;88215;-59
2022/08/14 01:29:56;;;;;;;7.50;6.50;;;;;;;20.33;78.31;100236.13;90086;1271;93597;-59
2022/08/14 01:32:05;;;;;;;9.50;6.80;;;;;;;20.34;78.30;100237.59;90035;1271;80779;-59
2022/08/14 01:34:14;;;;;;;7.60;5.80;;;;;;;20.31;78.35;100231.79;90110;1271;80997;-59
2022/08/14 01:36:25;;;;;;;7.40;6.30;;;;;;;20.31;78.04;100233.42;90088;1271;98133;-59
2022/08/14 01:38:34;;;;;;;7.80;6.20;;;;;;;20.33;78.02;100236.08;90106;1271;87070;-59
2022/08/14 01:40:43;;;;;;;7.10;6.00;;;;;;;20.33;77.84;100239.21;90085;1271;93875;-60
2022/08/14 01:42:51;;;;;;;5.90;5.30;;;;;;;20.33;77.85;100240.36;90079;1271;81712;-59
2022/08/14 01:45:00;;;;;;;7.50;5.80;;;;;;;20.34;77.78;100237.91;90103;1271;82536;-59
2022/08/14 01:47:12;;;;;;;7.40;5.80;;;;;;;20.33;77.80;100243.77;90085;1271;99943;-59
2022/08/14 01:49:22;;;;;;;7.50;5.90;;;;;;;20.29;77.71;100245.55;90094;1271;87605;-59
2022/08/14 01:51:31;;;;;;;6.50;5.40;;;;;;;20.25;77.96;100247.18;90081;1271;94775;-60
2022/08/14 01:53:41;;;;;;;8.60;6.40;;;;;;;20.22;78.00;100248.02;90073;1271;81177;-60
2022/08/14 01:55:56;;;;;;;11.20;7.40;;;;;;;20.21;78.25;100254.23;90093;1271;82407;-59
2022/08/14 01:58:05;;;;;;;11.30;8.20;;;;;;;20.21;78.48;100252.09;90094;1271;99870;-59
2022/08/14 02:00:17;;;;;;;12.30;8.50;;;;;;;20.20;78.71;100257.02;90125;1271;88955;-59
2022/08/14 02:02:43;;;;;;;11.30;8.50;;;;;;;20.16;78.74;100255.61;90055;1271;94613;-59
2022/08/14 02:04:59;;;;;;;13.70;8.80;;;;;;;20.11;78.91;100253.91;89924;1273;83596;-59
2022/08/14 02:08:05;;;;;;;11.00;8.60;;;;;;;20.07;79.00;100253.23;89958;1273;80800;-59
2022/08/14 02:10:18;;;;;;;13.70;8.50;;;;;;;20.07;79.27;100253.40;89870;1276;98740;-60
2022/08/14 02:12:28;;;;;;;9.40;8.10;;;;;;;20.10;79.12;100248.39;89811;1277;87405;-60
2022/08/14 02:14:39;;;;;;;11.60;8.20;;;;;;;20.11;79.05;100247.75;89865;1276;95105;-60
2022/08/14 02:16:59;;;;;;;9.30;7.10;;;;;;;20.10;79.19;100248.34;89871;1276;80858;-60
2022/08/14 02:19:13;;;;;;;8.70;6.50;;;;;;;20.09;78.77;100249.80;89875;1276;80258;-59
2022/08/14 02:21:23;;;;;;;7.80;6.40;;;;;;;20.09;78.60;100250.58;89850;1276;97089;-59
2022/08/14 02:23:32;;;;;;;8.30;6.60;;;;;;;20.09;78.58;100252.11;89865;1277;88520;-59
2022/08/14 02:25:43;;;;;;;9.90;6.10;;;;;;;20.07;78.57;100248.20;89872;1276;95099;-59
2022/08/14 02:27:54;;;;;;;9.50;6.50;;;;;;;20.08;78.55;100244.80;89834;1276;81064;-59
2022/08/14 02:30:04;;;;;;;9.20;5.70;;;;;;;20.06;78.46;100243.08;89858;1276;83144;-59
2022/08/14 02:32:15;;;;;;;8.80;5.80;;;;;;;20.03;78.45;100241.89;89856;1276;98950;-59
2022/08/14 02:34:28;;;;;;;7.70;6.40;;;;;;;20.06;78.29;100244.30;89874;1276;88258;-60
2022/08/14 02:36:36;;;;;;;8.50;6.10;;;;;;;20.07;78.33;100239.58;89983;1273;93939;-59
2022/08/14 02:38:47;;;;;;;9.40;5.60;;;;;;;20.10;78.26;100235.17;89989;1272;80814;-59
2022/08/14 02:41:05;;;;;;;6.80;6.10;;;;;;;20.12;78.20;100233.16;90021;1272;82124;-60
2022/08/14 02:43:14;;;;;;;7.50;5.80;;;;;;;20.11;78.02;100226.63;90015;1273;99474;-60
2022/08/14 02:45:23;;;;;;;6.80;5.90;;;;;;;20.09;78.13;100228.41;90025;1273;89080;-60
2022/08/14 02:47:32;;;;;;;7.50;6.10;;;;;;;20.06;77.95;100228.05;89989;1273;94829;-60
2022/08/14 02:49:42;;;;;;;7.70;6.90;;;;;;;20.05;77.84;100223.98;89979;1272;81887;-59
2022/08/14 02:51:52;;;;;;;8.20;5.70;;;;;;;20.03;77.66;100220.55;90012;1272;82280;-59
2022/08/14 02:54:01;;;;;;;8.70;5.80;;;;;;;19.99;77.70;100220.89;90015;1272;97556;-59
2022/08/14 02:56:14;;;;;;;10.60;6.00;;;;;;;19.97;77.68;100214.73;89989;1273;88176;-59
2022/08/14 02:58:23;;;;;;;8.70;6.50;;;;;;;19.98;77.64;100215.77;89993;1273;94453;-59
2022/08/14 03:00:34;;;;;;;8.50;5.60;;;;;;;19.93;77.77;100215.98;89986;1273;80829;-59
2022/08/14 03:02:42;;;;;;;8.30;6.30;;;;;;;19.91;77.68;100223.80;90007;1273;81073;-59
2022/08/14 03:04:53;;;;;;;10.00;7.00;;;;;;;19.90;77.72;100220.60;90004;1273;99831;-59
2022/08/14 03:07:01;;;;;;;7.40;6.60;;;;;;;19.92;77.70;100219.48;89996;1273;87426;-60
2022/08/14 03:09:11;;;;;;;9.40;5.80;;;;;;;19.91;77.65;100217.16;89962;1273;94949;-60
2022/08/14 03:11:20;;;;;;;8.40;6.50;;;;;;;19.91;77.65;100217.05;89987;1273;81813;-60
2022/08/14 03:13:34;;;;;;;10.20;6.90;;;;;;;19.90;77.77;100220.71;90029;1273;81464;-60
2022/08/14 03:15:45;;;;;;;8.00;5.70;;;;;;;19.87;77.79;100220.46;89999;1273;99073;-59
2022/08/14 03:17:54;;;;;;;7.00;6.10;;;;;;;19.89;77.90;100216.16;90013;1273;89049;-59
2022/08/14 03:20:05;;;;;;;5.70;4.90;;;;;;;19.94;77.69;100209.30;90000;1273;94226;-59
2022/08/14 03:22:14;;;;;;;9.80;6.30;;;;;;;19.91;77.62;100213.60;89977;1273;80451;-58
2022/08/14 03:24:23;;;;;;;8.10;5.40;;;;;;;19.93;77.72;100207.42;90029;1273;81405;-59
2022/08/14 03:26:31;;;;;;;8.20;5.60;;;;;;;19.94;77.67;100203.00;90021;1272;99349;-60
2022/08/14 03:28:41;;;;;;;7.80;5.40;;;;;;;19.96;77.55;100200.94;89988;1273;88063;-59
2022/08/14 03:30:50;;;;;;;6.90;5.00;;;;;;;19.95;77.71;100197.46;89994;1273;94619;-60
2022/08/14 03:32:59;;;;;;;7.70;5.40;;;;;;;19.93;77.80;100192.45;89975;1273;81871;-60
2022/08/14 03:35:10;;;;;;;8.10;5.10;;;;;;;19.95;77.53;100195.93;90021;1272;82605;-60
2022/08/14 03:37:19;;;;;;;9.60;5.30;;;;;;;19.98;77.41;100195.16;90020;1272;97143;-60
2022/08/14 03:39:27;;;;;;;9.00;5.70;;;;;;;19.98;77.52;100203.27;90022;1273;87656;-60
2022/08/14 03:41:36;;;;;;;6.20;4.90;;;;;;;19.97;77.38;100204.06;90009;1273;94945;-60
2022/08/14 03:43:46;;;;;;;9.20;5.40;;;;;;;19.97;77.60;100203.86;90000;1273;82489;-60
2022/08/14 03:45:54;;;;;;;6.70;6.00;;;;;;;19.98;77.61;100201.51;90015;1272;82413;-59
2022/08/14 03:48:04;;;;;;;7.20;5.00;;;;;;;20.02;77.51;100199.59;89647;1273;520705;-59
2022/08/14 03:50:13;;;;;;;6.40;5.70;;;;;;;20.00;77.72;100195.23;90003;1273;87747;-60
2022/08/14 03:52:22;;;;;;;8.70;5.70;;;;;;;20.00;77.66;100198.69;89983;1273;94301;-60
2022/08/14 03:54:34;;;;;;;7.50;5.20;;;;;;;20.03;77.65;100198.90;89972;1273;80173;-60
2022/08/14 03:56:44;;;;;;;9.40;5.60;;;;;;;20.05;77.60;100199.80;90007;1273;82259;-59
2022/08/14 03:58:55;;;;;;;6.00;5.20;;;;;;;20.08;77.70;100197.14;90027;1273;96599;-59
2022/08/14 04:01:04;;;;;;;5.90;5.30;;;;;;;20.05;77.78;100195.48;90009;1273;87782;-60
2022/08/14 04:03:15;;;;;;;5.90;5.30;;;;;;;20.07;77.87;100195.92;89998;1273;93858;-60
2022/08/14 04:05:24;;;;;;;9.30;6.20;;;;;;;20.06;77.78;100196.23;90018;1272;82484;-59
2022/08/14 04:07:33;;;;;;;11.40;6.30;;;;;;;20.13;77.71;100190.77;90062;1272;82177;-59
2022/08/14 04:09:41;;;;;;;7.50;5.10;;;;;;;20.18;77.87;100193.48;90010;1273;98034;-59
2022/08/14 04:11:50;;;;;;;8.90;5.40;;;;;;;20.23;77.68;100194.48;90004;1273;87884;-59
2022/08/14 04:14:00;;;;;;;6.80;5.40;;;;;;;20.28;77.67;100195.91;90010;1273;94342;-59
2022/08/14 04:16:14;;;;;;;6.80;5.60;;;;;;;20.33;77.63;100193.72;89983;1273;81431;-60
2022/08/14 04:18:23;;;;;;;8.30;6.10;;;;;;;20.37;77.67;100192.08;89988;1272;80245;-60
2022/08/14 04:20:32;;;;;;;6.40;5.20;;;;;;;20.43;77.56;100196.64;90014;1273;99334;-60
2022/08/14 04:22:42;;;;;;;5.90;5.30;;;;;;;20.43;77.63;100205.36;90012;1273;87930;-59
2022/08/14 04:24:52;;;;;;;7.50;5.50;;;;;;;20.47;77.57;100204.24;90008;1273;93328;-59
2022/08/14 04:27:01;;;;;;;6.80;5.10;;;;;;;20.56;77.34;100206.70;89985;1273;80533;-59
2022/08/14 04:29:09;;;;;;;6.40;5.10;;;;;;;20.68;77.25;100205.98;90037;1273;80839;-59
2022/08/14 04:31:19;;;;;;;8.10;5.50;;;;;;;20.73;77.22;100207.96;90007;1273;99489;-59
2022/08/14 04:33:28;;;;;;;6.10;5.50;;;;;;;20.80;77.17;100208.30;90021;1273;87810;-59
2022/08/14 04:35:36;;;;;;;7.90;6.30;;;;;;;20.84;77.05;100203.67;89994;1273;93014;-60
2022/08/14 04:45:07;;;;;;;6.30;4.90;;;;;;;21.02;76.46;100207.45;90007;1273;87745;-59
2022/08/14 04:49:42;;;;;;;7.70;5.50;;;;;;;20.99;76.22;100219.19;90007;1273;81488;-60
2022/08/14 04:51:50;;;;;;;7.10;5.50;;;;;;;21.00;76.22;100221.27;90016;1272;82979;-59
2022/08/14 04:54:00;;;;;;;8.30;6.50;;;;;;;20.98;76.09;100222.13;90024;1273;98987;-59
2022/08/14 04:56:10;;;;;;;10.00;5.50;;;;;;;21.04;76.05;100222.47;89993;1273;87426;-60
2022/08/14 04:58:21;;;;;;;7.40;5.50;;;;;;;21.12;75.90;100220.86;90007;1272;94602;-60
2022/08/14 05:00:29;;;;;;;8.40;5.90;;;;;;;21.19;75.86;100216.18;89997;1273;81429;-61
2022/08/14 05:02:38;;;;;;;8.90;5.90;;;;;;;21.26;75.88;100214.58;90025;1272;82319;-60
2022/08/14 05:04:48;;;;;;;8.10;5.40;;;;;;;21.37;75.73;100217.05;90014;1272;98413;-60
2022/08/14 05:06:57;;;;;;;6.90;6.00;;;;;;;21.36;75.32;100214.45;90020;1272;87568;-60
2022/08/14 05:09:06;;;;;;;8.50;5.90;;;;;;;21.38;75.38;100212.75;89996;1273;93881;-60
2022/08/14 05:11:15;;;;;;;6.60;5.90;;;;;;;21.35;75.26;100201.73;89982;1273;79910;-60
2022/08/14 05:13:26;;;;;;;6.60;5.90;;;;;;;21.34;75.30;100202.40;90007;1273;82819;-60
2022/08/14 05:15:36;;;;;;;8.80;6.10;;;;;;;21.35;75.28;100203.39;90021;1273;98462;-60
2022/08/14 05:17:48;;;;;;;7.40;5.40;;;;;;;21.31;75.10;100211.05;90014;1273;88053;-60
2022/08/14 05:19:56;;;;;;;10.10;6.60;;;;;;;21.22;75.17;100205.98;89993;1272;93987;-60
2022/08/14 05:22:06;;;;;;;16.80;7.80;;;;;;;21.20;75.25;100209.11;85385;1273;3066199;-60
2022/08/14 05:24:15;;;;;;;11.00;8.30;;;;;;;21.32;75.31;100212.05;90018;1273;82428;-60
2022/08/14 05:26:23;;;;;;;8.40;6.60;;;;;;;21.39;75.26;100212.06;90022;1273;100054;-60
2022/08/14 05:28:35;;;;;;;8.40;5.90;;;;;;;21.45;75.23;100214.39;90016;1273;89150;-59
2022/08/14 05:30:45;;;;;;;6.80;6.10;;;;;;;21.55;75.29;100213.48;89995;1272;94298;-59
2022/08/14 05:32:55;;;;;;;7.20;6.50;;;;;;;21.89;75.09;100206.85;89980;1273;81474;-59
2022/08/14 05:35:04;;;;;;;7.00;6.10;;;;;;;22.44;74.83;100201.70;90043;1272;82020;-58
2022/08/14 05:37:13;;;;;;;10.40;7.30;;;;;;;23.06;74.50;100200.88;90035;1273;97650;-59
2022/08/14 05:39:22;;;;;;;12.20;7.90;;;;;;;24.71;73.76;100198.61;90028;1273;88427;-60
2022/08/14 05:41:31;;;;;;;11.10;7.10;;;;;;;25.72;71.43;100200.35;90001;1273;93619;-60
2022/08/14 05:43:41;;;;;;;9.30;6.30;;;;;;;26.48;70.55;100195.70;89982;1273;79268;-60
2022/08/14 05:45:50;;;;;;;9.40;6.60;;;;;;;26.79;68.29;100199.13;90049;1272;82447;-59
2022/08/14 05:47:59;;;;;;;8.70;7.10;;;;;;;26.24;67.36;100195.23;90028;1273;99731;-59
2022/08/14 05:50:10;;;;;;;8.10;7.40;;;;;;;25.56;67.07;100207.55;90013;1273;89086;-59
2022/08/14 05:52:19;;;;;;;10.30;6.60;;;;;;;25.41;67.57;100203.88;90007;1272;93719;-59
2022/08/14 05:54:27;;;;;;;9.60;6.90;;;;;;;26.47;67.48;100201.96;90007;1273;80608;-60
2022/08/14 05:56:36;;;;;;;9.60;7.10;;;;;;;27.67;66.48;100197.90;90026;1272;82326;-60
2022/08/14 05:58:45;;;;;;;9.80;7.30;;;;;;;28.59;65.10;100196.41;90011;1273;99129;-60
2022/08/14 06:00:54;;;;;;;7.30;6.60;;;;;;;29.49;63.49;100189.13;89943;1274;87599;-59
2022/08/14 06:03:06;;;;;;;7.90;6.60;;;;;;;30.00;62.71;100180.26;90007;1272;95035;-59
2022/08/14 06:05:15;;;;;;;7.10;6.30;;;;;;;30.42;61.83;100177.61;89997;1273;78968;-60
2022/08/14 06:07:24;;;;;;;7.70;7.00;;;;;;;30.56;60.01;100178.63;90020;1272;82028;-60
2022/08/14 06:09:32;;;;;;;7.00;6.40;;;;;;;30.52;59.93;100177.86;90019;1272;98448;-60
2022/08/14 06:11:41;;;;;;;9.20;6.70;;;;;;;30.33;60.06;100179.89;89993;1273;86923;-60
2022/08/14 06:13:50;;;;;;;9.80;6.50;;;;;;;30.51;59.44;100180.73;89985;1273;94651;-60
2022/08/14 06:15:58;;;;;;;8.20;6.80;;;;;;;30.65;59.46;100180.96;90028;1273;78994;-60
2022/08/14 06:18:07;;;;;;;8.30;6.80;;;;;;;30.75;58.69;100177.67;90017;1272;82222;-60
2022/08/14 06:20:17;;;;;;;8.10;7.40;;;;;;;31.28;57.63;100177.02;90041;1273;99351;-60
2022/08/14 06:22:26;;;;;;;7.70;6.90;;;;;;;31.57;57.07;100177.82;90035;1273;88084;-60
2022/08/14 06:24:34;;;;;;;8.20;7.30;;;;;;;31.79;56.01;100174.75;90000;1272;94682;-60
2022/08/14 06:26:43;;;;;;;9.90;8.00;;;;;;;31.33;55.44;100175.52;89982;1272;80471;-60
2022/08/14 06:28:51;;;;;;;8.90;8.10;;;;;;;31.35;55.19;100173.95;90024;1272;82770;-60
2022/08/14 06:31:00;;;;;;;8.60;7.20;;;;;;;31.94;55.29;100170.52;90026;1272;98880;-60
2022/08/14 06:33:09;;;;;;;8.40;7.60;;;;;;;31.64;54.75;100172.60;90018;1272;87729;-60
2022/08/14 06:35:19;;;;;;;10.10;8.30;;;;;;;30.94;54.61;100172.04;90025;1272;94596;-60
2022/08/14 06:37:28;;;;;;;10.50;8.10;;;;;;;30.76;54.17;100170.38;90020;1272;80841;-60
2022/08/14 06:39:36;;;;;;;11.90;7.90;;;;;;;30.88;54.68;100170.61;90038;1272;82518;-60
2022/08/14 06:41:45;;;;;;;8.70;7.50;;;;;;;31.24;54.14;100178.34;90026;1273;99376;-60
2022/08/14 06:43:53;;;;;;;9.80;8.60;;;;;;;30.09;54.45;100181.94;90050;1272;87827;-60
2022/08/14 06:46:02;;;;;;;9.20;8.30;;;;;;;29.94;55.20;100182.66;90004;1273;95345;-60
2022/08/14 06:48:19;;;;;;;10.80;9.70;;;;;;;30.12;54.67;100178.06;89986;1272;80726;-61
2022/08/14 06:50:30;;;;;;;10.90;9.60;;;;;;;29.10;54.14;100183.56;90042;1272;81572;-60
2022/08/14 06:52:39;;;;;;;10.50;9.50;;;;;;;28.25;55.19;100178.72;90012;1272;99536;-60
2022/08/14 06:54:48;;;;;;;10.40;9.40;;;;;;;27.81;56.08;100185.52;90022;1272;88543;-60
2022/08/14 06:56:57;;;;;;;10.60;9.60;;;;;;;27.68;56.63;100184.29;90016;1273;93868;-59
2022/08/14 06:59:06;;;;;;;10.70;9.50;;;;;;;27.15;57.16;100189.85;90010;1273;79811;-59
2022/08/14 07:05:46;;;;;;;10.90;9.80;;;;;;;27.56;59.20;100186.39;90088;1257;98599;-59
2022/08/14 07:07:56;;;;;;;10.90;9.80;;;;;;;28.15;58.62;100185.19;90248;1270;87883;-59
2022/08/14 07:10:05;;;;;;;10.40;9.40;;;;;;;28.50;58.31;100188.73;90219;1270;95532;-59
2022/08/14 07:12:14;;;;;;;10.90;9.80;;;;;;;28.24;57.91;100185.87;90216;1270;79219;-60
2022/08/14 07:14:23;;;;;;;12.10;10.10;;;;;;;28.12;58.22;100182.23;90215;1270;82408;-60
2022/08/14 07:16:31;;;;;;;10.90;9.80;;;;;;;28.97;57.65;100185.88;90207;1270;99675;-60
2022/08/14 07:18:41;;;;;;;11.20;10.20;;;;;;;30.01;56.17;100186.45;90210;1270;88706;-60
2022/08/14 07:20:51;;;;;;;10.60;9.60;;;;;;;30.49;55.47;100187.11;90214;1270;93219;-59
2022/08/14 07:23:00;;;;;;;10.60;9.50;;;;;;;31.03;54.20;100184.33;90188;1270;80100;-59
2022/08/14 07:25:11;;;;;;;11.50;9.40;;;;;;;31.33;53.57;100183.90;90232;1270;82274;-60
2022/08/14 07:27:19;;;;;;;11.00;9.70;;;;;;;30.87;52.78;100180.09;90233;1270;98524;-59
2022/08/14 07:29:28;;;;;;;9.90;9.00;;;;;;;30.33;53.81;100181.89;90218;1270;88682;-59
2022/08/14 07:31:37;;;;;;;10.00;9.10;;;;;;;30.18;54.65;100181.40;90188;1270;95560;-59
2022/08/14 07:33:48;;;;;;;11.10;10.00;;;;;;;29.84;54.91;100182.39;90002;1272;80485;-60
2022/08/14 07:35:59;;;;;;;10.40;9.50;;;;;;;29.92;55.28;100178.70;90228;1270;82965;-59
2022/08/14 07:38:08;;;;;;;9.90;8.90;;;;;;;30.68;55.05;100173.53;90223;1270;98862;-59
2022/08/14 07:40:18;;;;;;;10.30;9.30;;;;;;;31.79;54.44;100169.00;90230;1270;87806;-59
2022/08/14 07:42:27;;;;;;;9.90;9.00;;;;;;;32.58;53.71;100165.69;90196;1270;94465;-59
2022/08/14 07:44:36;;;;;;;10.10;9.20;;;;;;;32.98;53.00;100168.39;90191;1270;79313;-59
2022/08/14 07:46:45;;;;;;;11.10;9.70;;;;;;;32.76;51.45;100164.80;90246;1270;83261;-59
2022/08/14 07:48:53;;;;;;;10.50;9.10;;;;;;;32.88;51.68;100165.79;90235;1270;99135;-59
2022/08/14 07:51:02;;;;;;;10.00;9.00;;;;;;;33.30;50.67;100165.91;90225;1269;87819;-60
2022/08/14 07:53:12;;;;;;;10.00;9.00;;;;;;;32.60;49.89;100159.63;90211;1270;93967;-60
2022/08/14 07:55:22;;;;;;;10.30;9.20;;;;;;;33.11;50.95;100160.98;90217;1270;81115;-60
2022/08/14 07:57:30;;;;;;;10.60;9.40;;;;;;;33.86;49.58;100161.38;90220;1270;82690;-60
2022/08/14 07:59:40;;;;;;;11.20;10.20;;;;;;;33.51;48.94;100158.75;90232;1270;98505;-61
2022/08/14 08:01:48;;;;;;;10.50;9.50;;;;;;;33.78;49.25;100158.48;90231;1270;88102;-60
2022/08/14 08:03:58;;;;;;;11.00;10.00;;;;;;;34.13;48.51;100160.94;90211;1270;94680;-60
2022/08/14 08:06:08;;;;;;;10.90;9.60;;;;;;;34.31;47.93;100156.69;90215;1270;80630;-60
2022/08/14 08:08:20;;;;;;;10.50;9.60;;;;;;;34.96;47.29;100159.00;90219;1270;82481;-60
2022/08/14 08:10:33;;;;;;;10.90;9.70;;;;;;;35.17;46.53;100157.77;90236;1270;98899;-60
2022/08/14 08:12:42;;;;;;;10.50;9.50;;;;;;;34.32;45.76;100159.77;90242;1270;88454;-60
2022/08/14 08:14:51;;;;;;;9.80;8.90;;;;;;;33.40;46.50;100163.72;90195;1270;93556;-60
2022/08/14 08:17:01;;;;;;;11.20;10.00;;;;;;;33.56;47.17;100160.81;90025;1272;79644;-60
2022/08/14 08:19:10;;;;;;;11.20;10.10;;;;;;;33.20;47.22;100166.05;90241;1270;82337;-60
2022/08/14 08:21:21;;;;;;;10.70;9.60;;;;;;;33.16;47.02;100159.09;90224;1270;98807;-60
2022/08/14 08:23:32;;;;;;;11.00;10.00;;;;;;;32.63;47.30;100156.89;90202;1270;89127;-60
2022/08/14 08:25:44;;;;;;;10.90;9.80;;;;;;;32.52;47.16;100156.95;90198;1270;95275;-60
2022/08/14 08:28:03;;;;;;;11.60;10.40;;;;;;;32.25;47.61;100160.75;90208;1270;79233;-61
2022/08/14 08:30:14;;;;;;;10.80;9.70;;;;;;;32.31;48.53;100157.84;90204;1270;82545;-61
2022/08/14 08:32:23;;;;;;;10.60;9.70;;;;;;;32.31;48.20;100155.68;90220;1270;98122;-60
2022/08/14 08:34:44;;;;;;;10.80;9.70;;;;;;;32.18;48.42;100153.56;90216;1270;86701;-60
2022/08/14 08:36:52;;;;;;;10.80;9.50;;;;;;;32.39;48.87;100158.70;90202;1270;94384;-60
2022/08/14 08:39:04;;;;;;;13.00;10.10;;;;;;;32.45;47.82;100155.49;90207;1269;80449;-60
2022/08/14 08:41:14;;;;;;;11.10;9.70;;;;;;;32.01;47.72;100157.28;90058;1272;82153;-60
2022/08/14 08:43:25;;;;;;;11.00;10.10;;;;;;;32.20;48.80;100157.43;90235;1270;98665;-60
2022/08/14 08:45:35;;;;;;;12.80;10.30;;;;;;;32.66;48.51;100156.95;90247;1270;88831;-60
2022/08/14 08:47:45;;;;;;;11.30;10.20;;;;;;;32.52;47.50;100157.21;90216;1270;92978;-60
2022/08/14 08:49:54;;;;;;;10.70;9.70;;;;;;;31.91;47.46;100158.58;90195;1269;79506;-60
2022/08/14 08:52:07;;;;;;;11.20;10.10;;;;;;;31.30;48.33;100162.55;90212;1270;80689;-60
2022/08/14 08:54:18;;;;;;;10.80;9.70;;;;;;;30.85;48.97;100155.83;90229;1269;99802;-60
2022/08/14 08:56:37;;;;;;;11.80;10.60;;;;;;;30.62;49.89;100159.70;90241;1270;88630;-60
2022/08/14 08:58:46;;;;;;;10.60;9.60;;;;;;;31.02;50.27;100158.50;90205;1270;94472;-60
2022/08/14 09:00:57;;;;;;;11.60;10.20;;;;;;;31.31;49.93;100155.48;90212;1270;79857;-60
2022/08/14 09:03:10;;;;;;;10.80;9.90;;;;;;;31.51;50.12;100152.42;90247;1270;81378;-60
2022/08/14 09:05:19;;;;;;;10.90;9.90;;;;;;;31.89;50.04;100151.47;90043;1271;99023;-60
2022/08/14 09:07:30;;;;;;;11.20;10.10;;;;;;;32.57;49.94;100152.30;90210;1270;88409;-60
2022/08/14 09:09:50;;;;;;;11.00;9.30;;;;;;;32.46;48.64;100153.70;90192;1270;94860;-60
2022/08/14 09:12:07;;;;;;;10.90;9.90;;;;;;;31.98;48.42;100155.18;90230;1270;79192;-60
2022/08/14 09:14:16;;;;;;;11.50;10.40;;;;;;;31.20;49.34;100156.47;90223;1270;83114;-60
2022/08/14 09:16:25;;;;;;;11.20;10.00;;;;;;;31.06;49.64;100154.30;90197;1269;97843;-61
2022/08/14 09:18:35;;;;;;;11.10;10.20;;;;;;;30.90;49.83;100150.56;90237;1270;88212;-60
2022/08/14 09:20:47;;;;;;;12.40;11.20;;;;;;;30.40;50.31;100147.56;90207;1270;95448;-60
2022/08/14 09:22:56;;;;;;;11.40;10.30;;;;;;;30.09;51.06;100147.05;90196;1270;80529;-60
2022/08/14 09:25:06;;;;;;;11.20;10.20;;;;;;;29.90;51.35;100146.12;90248;1270;82470;-60
2022/08/14 09:27:18;;;;;;;11.80;10.40;;;;;;;29.64;51.98;100145.45;90250;1269;99910;-60
2022/08/14 09:29:27;;;;;;;12.00;10.80;;;;;;;29.55;52.22;100144.81;90214;1270;89406;-60
2022/08/14 09:31:40;;;;;;;12.40;11.10;;;;;;;29.28;52.51;100144.33;90212;1270;94144;-60
2022/08/14 09:34:08;;;;;;;11.80;10.70;;;;;;;29.09;52.82;100140.64;90213;1270;79261;-60
2022/08/14 09:36:51;;;;;;;12.40;11.10;;;;;;;28.78;53.34;100138.45;90202;1270;81741;-60
2022/08/14 09:39:16;;;;;;;12.80;11.40;;;;;;;28.41;54.20;100143.91;90212;1270;98798;-60
2022/08/14 09:41:48;;;;;;;12.30;11.00;;;;;;;28.26;54.65;100140.32;90238;1269;88179;-60
2022/08/14 09:44:05;;;;;;;12.30;11.10;;;;;;;28.30;54.77;100141.16;90216;1270;94587;-59
2022/08/14 09:46:15;;;;;;;12.40;11.10;;;;;;;28.27;55.00;100144.46;90186;1269;81061;-60
2022/08/14 09:48:26;;;;;;;12.00;10.80;;;;;;;28.24;55.31;100142.79;90179;1270;83085;-60
2022/08/14 09:50:48;;;;;;;12.40;11.20;;;;;;;28.12;55.49;100143.79;90222;1270;98674;-59
2022/08/14 09:53:02;;;;;;;12.20;11.00;;;;;;;27.93;55.81;100140.29;90224;1270;88486;-59
2022/08/14 09:55:23;;;;;;;12.70;11.50;;;;;;;27.79;56.32;100139.20;90210;1269;94440;-60
2022/08/14 09:57:33;;;;;;;13.30;11.20;;;;;;;27.81;56.44;100137.17;90236;1270;79139;-60
2022/08/14 09:59:48;;;;;;;11.50;10.40;;;;;;;27.81;56.80;100132.54;90227;1270;82583;-60
2022/08/14 10:01:58;;;;;;;12.30;11.10;;;;;;;27.85;56.91;100128.47;90228;1269;99348;-59
2022/08/14 10:04:22;;;;;;;12.30;11.20;;;;;;;27.86;56.98;100130.22;90228;1270;88236;-60
2022/08/14 10:06:31;;;;;;;12.30;11.00;;;;;;;27.93;57.03;100125.23;90216;1269;94462;-60
2022/08/14 10:08:50;;;;;;;12.80;10.90;;;;;;;27.99;57.12;100125.80;90226;1270;79271;-60
2022/08/14 10:10:59;;;;;;;12.60;11.30;;;;;;;27.85;57.32;100120.98;90247;1270;81969;-60
2022/08/14 10:13:22;;;;;;;13.00;11.70;;;;;;;27.80;57.46;100124.23;90221;1270;98767;-60
2022/08/14 10:15:31;;;;;;;;;;;;;;;27.93;57.57;100119.11;90256;1270;87920;-60
2022/08/14 10:17:40;;;;;;;12.00;10.90;;;;;;;27.91;57.45;100115.66;90254;1270;94679;-60
2022/08/14 10:19:52;;;;;;;13.50;12.20;;;;;;;28.01;57.78;100112.68;90249;1269;79531;-60
2022/08/14 10:22:06;;;;;;;12.10;10.90;;;;;;;28.27;58.02;100113.45;90248;1270;82349;-60